x

Long Island - 30 Nm South Of Islip, Ny (44025) Wave Buoy

2:50am - Sun 26th Jun 2016 All times are EDT. -4 hours from GMT.

  • Sig Wave height 2.6ft
  • Swell Direction
  • Peak Period 8s
  • Average Period 5s
  • Wind
  • Sea Temp 67°f
  • Air Temp 66°f
  • Sea Pressure 1022.7mb
  • Long Island - 30 Nm South Of Islip, Ny
  • Long Island - 30 Nm South Of Islip, Ny

More Historic Weather Station data

Upgrade to MSW Pro to gain access to the past 30 days of data for over 8000 Wavebouys and Weather Stations around the globe.

Join Pro

Comparision Forecast

View Surf forecast
   
Sun 06/26 2:50am 2.5ft 8s 5s  -  2 mph 1022.7mb 67f 66f
1:50am 3.5ft 6s 5s 4
mph
1022.5mb 67f 66f
12:50am 3ft 7s 5s 7 9 mph 1022.4mb 67f 66f
Sat 06/25 11:50pm 3ft 6s 5s 9 11 mph 1022.6mb 67f 67f
10:50pm 3.5ft 7s 5s 9
mph
1022.4mb 67f 67f
9:50pm 3.5ft 6s 5s 7
mph
1022.5mb 67f 67f
8:50pm 3ft 6s 5s 7
mph
1022.1mb 67f 67f
5:50pm 2.5ft 8s 5s 11 13 mph 1021.6mb 68f 67f
4:50pm 2.5ft 8s 5s 11 13 mph 1021.7mb 68f 67f
3:50pm 2.5ft 8s 5s 11 13 mph 1021.7mb 68f 67f
2:50pm 2.5ft 8s 5s 9 11 mph 1022.1mb 68f 66f
1:50pm 2.5ft 8s 4s 11 13 mph 1022.2mb 67f 66f
12:50pm 2.5ft 7s 4s 11 13 mph 1022mb 67f 66f
11:50am 2.5ft 8s 4s 13 16 mph 1021.7mb 67f 66f
10:50am 2.5ft 8s 4s 13 16 mph 1021.7mb 67f 66f
9:50am 2.5ft 8s 4s 13 16 mph 1021.2mb 67f 66f
8:50am 3ft 8s 4s 13 16 mph 1021.4mb 67f 65f
7:50am 2.5ft 7s 4s 13
mph
1021mb 67f 65f
6:50am 2.5ft 8s 4s 13 16 mph 1020.8mb 66f 65f
5:50am 2.5ft 8s 5s 13 16 mph 1019.9mb 67f 65f
4:50am 2.5ft 8s 5s 9 11 mph 1019.1mb 67f 65f
3:50am 2.5ft 7s 5s 9
mph
1019mb 66f 66f
2:50am 2.5ft 7s 5s 11 13 mph 1018.8mb 67f 66f
1:50am 2.5ft 7s 5s 11
mph
1018.9mb 67f 66f
12:50am 2.5ft 7s 5s 11
mph
1018.7mb 67f 66f
Fri 06/24 11:50pm 2.5ft 8s 5s 9 11 mph 1019mb 67f 66f
10:50pm 2.5ft 8s 5s 7 9 mph 1018.9mb 67f 67f
9:50pm 2.5ft 8s 5s 9 11 mph 1018.4mb 67f 66f
8:50pm 2.5ft 8s 5s 7 9 mph 1018.2mb 67f 67f
7:50pm 2.5ft 8s 5s 9 11 mph 1018.1mb 67f 67f
6:50pm 2.5ft 8s 4s 11 13 mph 1017.8mb 67f 67f
5:50pm 2.5ft 8s 4s 13 16 mph 1017.9mb 67f 67f
4:50pm 3ft 8s 5s 13 16 mph 1017.8mb 67f 67f
3:50pm 3ft 8s 5s 11 13 mph 1018mb 67f 67f
2:50pm 2.5ft 8s 4s 11 13 mph 1017.9mb 67f 67f
1:50pm 2.5ft 6s 4s 9 11 mph 1017.4mb 67f 67f
12:50pm 3ft 8s 5s 11 13 mph 1017.5mb 66f 66f
11:50am 3ft 6s 5s 13 16 mph 1017.3mb 66f 66f
10:50am 3ft 6s 4s 13 18 mph 1016.8mb 66f 64f
9:50am 2.5ft 7s 4s 16 18 mph 1016.1mb 66f 65f
8:50am 2.5ft 7s 5s 13 18 mph 1015.5mb 66f 64f
7:50am 2ft 7s 5s 11 16 mph 1014.8mb 66f 64f
6:50am 2ft 7s 5s 11
mph
1014mb 67f 64f
5:50am 2ft 7s 5s 11 13 mph 1013.6mb 66f 64f
4:50am 1.6ft 6s 5s 4 7 mph 1013mb 66f 64f
3:50am 2ft 6s 5s 7
mph
1012.4mb 66f 65f
2:50am 2ft 6s 5s 4
mph
1012.3mb 66f 66f
1:50am 2ft 7s 5s 4 7 mph 1011.7mb 67f 66f
12:50am 2ft 6s 5s 7
mph
1011.2mb 66f 66f
Thu 06/23 11:50pm 2ft 7s 5s 2
mph
1011.1mb 66f 65f
10:50pm 2ft 7s 5s 4 7 mph 1011mb 66f 65f
9:50pm 2.5ft 7s 5s 4 7 mph 1010.8mb 66f 65f
8:50pm 2.5ft 6s 5s 4 7 mph 1010mb 67f 66f
7:50pm 2.5ft 7s 5s 7
mph
1009.7mb 67f 67f
6:50pm 2.5ft 7s 5s 7
mph
1009.6mb 67f 67f
5:50pm 2.5ft 7s 5s 7 9 mph 1009.2mb 67f 67f
4:50pm 2.5ft 7s 5s 7
mph
1010.1mb 67f 67f
3:50pm 2.5ft 6s 5s 9 11 mph 1010mb 67f 67f
2:50pm 3ft 6s 5s 9
mph
1009.9mb 67f 67f
1:50pm 3ft 7s 6s 7 9 mph 1009.9mb 66f 67f
12:50pm 3.5ft 7s 5s 4
mph
1010.6mb 66f 67f
11:50am 3.5ft 7s 5s 4 7 mph 1011mb 65f 67f
10:50am 3.5ft 7s 5s 7 9 mph 1011.8mb 65f 68f
9:50am 3.5ft 7s 5s 11 13 mph 1011.7mb 65f 68f
8:50am 3.5ft 7s 5s 11 13 mph 1011.6mb 65f 67f
7:50am 3.5ft 7s 5s 9 11 mph 1011.8mb 65f 68f
6:50am 3.5ft 7s 6s 9
mph
1012mb 65f 68f
5:50am 3.5ft 8s 6s 9
mph
1012mb 65f 68f
3:50am 4ft 8s 6s 9
mph
1011.9mb 65f 69f
2:50am 4ft 8s 6s 11
mph
1012.5mb 65f 69f
1:50am 3.5ft 8s 6s 7
mph
1012.4mb 65f 72f
12:50am 4ft 8s 6s 7 9 mph 1012.7mb 65f 72f
Wed 06/22 11:50pm 4.5ft 8s 7s 9 13 mph 1013.2mb 65f 73f
10:50pm 4.5ft 8s 6s  -  2 mph 1012.8mb 66f 73f
9:50pm 4.5ft 8s 6s 7 9 mph 1012.1mb 67f 72f
8:50pm 4.5ft 8s 6s 7
mph
1011mb 68f 71f
7:50pm 5ft 8s 6s 7 9 mph 1010.7mb 68f 72f
6:50pm 4.5ft 8s 6s 7 9 mph 1010.2mb 68f 73f
5:50pm 4.5ft 8s 6s 9 11 mph 1010mb 68f 73f
4:50pm 4.5ft 8s 6s 11 13 mph 1010mb 68f 74f
3:50pm 4.5ft 8s 6s 11
mph
1009.2mb 67f 71f
2:50pm 4.5ft 7s 6s 9 11 mph 1009.4mb 67f 70f
1:50pm 3.5ft 8s 6s 7
mph
1009.5mb 67f 68f
12:50pm 4ft 8s 6s 9
mph
1009.6mb 66f 67f
11:50am 4.5ft 8s 6s 9 11 mph 1009.4mb 66f 67f
10:50am 4.5ft 8s 6s 9 11 mph 1009.3mb 66f 67f
9:50am 4.5ft 7s 6s 4
mph
1008.7mb 66f 66f
8:50am 4.5ft 7s 6s 4 7 mph 1008.9mb 66f 66f